Pagina principale
METAR-TAF:

METAR-TAF

Aeroporti :

Alghero, Italia

Aeroporto di Alghero-Fertilia

latitudine: 40-38N, longitudine: 008-17E, altezza: 23 m

Osservazione

Il bollettino è stato emesso 22 minuti fa, alle 00:50 UTC
Vento 11 kt da ovest
Temperature 14°C
Umidità 77%
Pressione 1016 hPa
Visibilità 10 km o più
Poco nuvoloso ad un'altezza di 3500 ft

METAR: LIEA 170050Z 27011KT 9999 FEW035 14/10 Q1016

Ora: 02:12 (01:12 UTC)

Previsione

Il bollettino è stato emesso 2 ore e 12 minuti fa, alle 23:00 UTC
Previsione valida dal 17 alle 00 UTC al 17 alle 24 UTC
Vento 15 kt da ovest
Visibilità 10 km o più
Nubi sparse ad un'altezza di 3000 ft
Evoluzione graduale
dal 17 alle 06 UTC al 17 alle 09 UTC
Vento 20 kt da ovest/nord-ovest con raffiche fino a 32 kt

TAF: LIEA 162300Z 1700/1724 26015KT 9999 SCT030 BECMG 1706/1709 30020G32KT

Osservazioni e previsioni meteorologiche di più di 4000 aeroporti (messaggi METAR e TAF).

Le stazioni disponibili sono rappresentate dai dischi gialli e rossi sulla carta.

Puntare il mouse per vedere il nome della stazione.

Clicca sopra per visualizzare le osservazioni e previsioni meteorologiche.

Per cambiare la mappa : fare clic sui pulsanti verdi con una croce nera per ingrandire, il pulsante verde con un trattino per diminuire, o sulla freccia verde per le mappe adiacenti.


METAR-TAF: